sensor_id;sensor_type;location;lat;lon;timestamp;temperature;humidity
23744;DHT22;12052;53.478;10.182;2023-04-03T00:00:23;0.20;99.90
23744;DHT22;12052;53.478;10.182;2023-04-03T00:02:48;0.10;99.90
23744;DHT22;12052;53.478;10.182;2023-04-03T00:05:14;0.10;99.90
23744;DHT22;12052;53.478;10.182;2023-04-03T00:07:40;0.10;99.90
23744;DHT22;12052;53.478;10.182;2023-04-03T00:10:06;0.10;99.90
23744;DHT22;12052;53.478;10.182;2023-04-03T00:12:32;0.10;99.90
23744;DHT22;12052;53.478;10.182;2023-04-03T00:14:58;0.10;99.90
23744;DHT22;12052;53.478;10.182;2023-04-03T00:17:23;0.10;99.90
23744;DHT22;12052;53.478;10.182;2023-04-03T00:19:49;0.10;99.90
23744;DHT22;12052;53.478;10.182;2023-04-03T00:22:14;0.10;99.90
23744;DHT22;12052;53.478;10.182;2023-04-03T00:24:40;0.10;99.90
23744;DHT22;12052;53.478;10.182;2023-04-03T00:27:06;0.10;99.90
23744;DHT22;12052;53.478;10.182;2023-04-03T00:29:31;0.10;99.90
23744;DHT22;12052;53.478;10.182;2023-04-03T00:31:57;0.10;99.90
23744;DHT22;12052;53.478;10.182;2023-04-03T00:34:22;0.10;99.90
23744;DHT22;12052;53.478;10.182;2023-04-03T00:36:48;0.10;99.90
23744;DHT22;12052;53.478;10.182;2023-04-03T00:39:13;0.10;99.90
23744;DHT22;12052;53.478;10.182;2023-04-03T00:41:39;0.00;99.90
23744;DHT22;12052;53.478;10.182;2023-04-03T00:46:59;0.00;99.90
23744;DHT22;12052;53.478;10.182;2023-04-03T00:49:26;0.00;99.90
23744;DHT22;12052;53.478;10.182;2023-04-03T00:51:52;0.00;99.90
23744;DHT22;12052;53.478;10.182;2023-04-03T00:54:18;-0.10;99.90
23744;DHT22;12052;53.478;10.182;2023-04-03T00:56:45;-0.10;99.90
23744;DHT22;12052;53.478;10.182;2023-04-03T00:59:15;-0.10;99.90
23744;DHT22;12052;53.478;10.182;2023-04-03T01:01:42;-0.10;99.90
23744;DHT22;12052;53.478;10.182;2023-04-03T01:04:28;-0.20;99.90
23744;DHT22;12052;53.478;10.182;2023-04-03T01:06:56;-0.20;99.90
23744;DHT22;12052;53.478;10.182;2023-04-03T01:09:23;-0.20;99.90
23744;DHT22;12052;53.478;10.182;2023-04-03T01:11:49;-0.20;99.90
23744;DHT22;12052;53.478;10.182;2023-04-03T01:14:15;-0.10;99.90
23744;DHT22;12052;53.478;10.182;2023-04-03T01:16:40;-0.10;99.90
23744;DHT22;12052;53.478;10.182;2023-04-03T01:19:08;-0.10;99.90
23744;DHT22;12052;53.478;10.182;2023-04-03T01:21:58;-0.10;99.90
23744;DHT22;12052;53.478;10.182;2023-04-03T01:24:36;0.00;99.90
23744;DHT22;12052;53.478;10.182;2023-04-03T01:27:05;0.00;99.90
23744;DHT22;12052;53.478;10.182;2023-04-03T01:29:32;0.00;99.90
23744;DHT22;12052;53.478;10.182;2023-04-03T01:32:00;0.00;99.90
23744;DHT22;12052;53.478;10.182;2023-04-03T01:34:27;0.00;99.90
23744;DHT22;12052;53.478;10.182;2023-04-03T01:36:53;0.00;99.90
23744;DHT22;12052;53.478;10.182;2023-04-03T01:39:19;0.00;99.90
23744;DHT22;12052;53.478;10.182;2023-04-03T01:41:45;0.00;99.90
23744;DHT22;12052;53.478;10.182;2023-04-03T01:44:11;-0.10;99.90
23744;DHT22;12052;53.478;10.182;2023-04-03T01:46:37;-0.10;99.90
23744;DHT22;12052;53.478;10.182;2023-04-03T01:49:03;-0.10;99.90
23744;DHT22;12052;53.478;10.182;2023-04-03T01:51:30;-0.10;99.90
23744;DHT22;12052;53.478;10.182;2023-04-03T01:53:55;-0.20;99.90
23744;DHT22;12052;53.478;10.182;2023-04-03T01:56:21;-0.20;99.90
23744;DHT22;12052;53.478;10.182;2023-04-03T01:58:47;-0.20;99.90
23744;DHT22;12052;53.478;10.182;2023-04-03T02:01:13;-0.30;99.90
23744;DHT22;12052;53.478;10.182;2023-04-03T02:03:38;-0.30;99.90
23744;DHT22;12052;53.478;10.182;2023-04-03T02:06:04;-0.30;99.90
23744;DHT22;12052;53.478;10.182;2023-04-03T02:08:30;-0.30;99.90
23744;DHT22;12052;53.478;10.182;2023-04-03T02:10:56;-0.30;99.90
23744;DHT22;12052;53.478;10.182;2023-04-03T02:13:21;-0.40;99.90
23744;DHT22;12052;53.478;10.182;2023-04-03T02:15:47;-0.40;99.90
23744;DHT22;12052;53.478;10.182;2023-04-03T02:18:13;-0.30;99.90
23744;DHT22;12052;53.478;10.182;2023-04-03T02:20:39;-0.30;99.90
23744;DHT22;12052;53.478;10.182;2023-04-03T02:23:05;-0.40;99.90
23744;DHT22;12052;53.478;10.182;2023-04-03T02:25:31;-0.30;99.90
23744;DHT22;12052;53.478;10.182;2023-04-03T02:27:57;-0.30;99.90
23744;DHT22;12052;53.478;10.182;2023-04-03T02:30:23;-0.20;99.90
23744;DHT22;12052;53.478;10.182;2023-04-03T02:32:49;-0.20;99.90
23744;DHT22;12052;53.478;10.182;2023-04-03T02:35:15;-0.20;99.90
23744;DHT22;12052;53.478;10.182;2023-04-03T02:37:40;-0.20;99.90
23744;DHT22;12052;53.478;10.182;2023-04-03T02:40:07;-0.20;99.90
23744;DHT22;12052;53.478;10.182;2023-04-03T02:42:32;-0.20;99.90
23744;DHT22;12052;53.478;10.182;2023-04-03T02:44:58;-0.20;99.90
23744;DHT22;12052;53.478;10.182;2023-04-03T02:47:29;-0.20;99.90
23744;DHT22;12052;53.478;10.182;2023-04-03T02:49:54;-0.20;99.90
23744;DHT22;12052;53.478;10.182;2023-04-03T02:52:20;-0.20;99.90
23744;DHT22;12052;53.478;10.182;2023-04-03T02:54:46;-0.20;99.90
23744;DHT22;12052;53.478;10.182;2023-04-03T02:57:11;-0.20;99.90
23744;DHT22;12052;53.478;10.182;2023-04-03T02:59:37;-0.20;99.90
23744;DHT22;12052;53.478;10.182;2023-04-03T03:02:08;-0.20;99.90
23744;DHT22;12052;53.478;10.182;2023-04-03T03:04:35;-0.20;99.90
23744;DHT22;12052;53.478;10.182;2023-04-03T03:07:01;-0.20;99.90
23744;DHT22;12052;53.478;10.182;2023-04-03T03:09:27;-0.30;99.90
23744;DHT22;12052;53.478;10.182;2023-04-03T03:11:52;-0.30;99.90
23744;DHT22;12052;53.478;10.182;2023-04-03T03:14:18;-0.30;99.90
23744;DHT22;12052;53.478;10.182;2023-04-03T03:16:44;-0.40;99.90
23744;DHT22;12052;53.478;10.182;2023-04-03T03:19:10;-0.40;99.90
23744;DHT22;12052;53.478;10.182;2023-04-03T03:21:36;-0.40;99.90
23744;DHT22;12052;53.478;10.182;2023-04-03T03:24:01;-0.40;99.90
23744;DHT22;12052;53.478;10.182;2023-04-03T03:26:27;-0.40;99.90
23744;DHT22;12052;53.478;10.182;2023-04-03T03:28:53;-0.40;99.90
23744;DHT22;12052;53.478;10.182;2023-04-03T03:31:19;-0.40;99.90
23744;DHT22;12052;53.478;10.182;2023-04-03T03:33:44;-0.40;99.90
23744;DHT22;12052;53.478;10.182;2023-04-03T03:36:10;-0.40;99.90
23744;DHT22;12052;53.478;10.182;2023-04-03T03:38:36;-0.50;99.90
23744;DHT22;12052;53.478;10.182;2023-04-03T03:41:02;-0.40;99.90
23744;DHT22;12052;53.478;10.182;2023-04-03T03:43:28;-0.40;99.90
23744;DHT22;12052;53.478;10.182;2023-04-03T03:45:54;-0.40;99.90
23744;DHT22;12052;53.478;10.182;2023-04-03T03:48:20;-0.40;99.90
23744;DHT22;12052;53.478;10.182;2023-04-03T03:50:46;-0.40;99.90
23744;DHT22;12052;53.478;10.182;2023-04-03T03:53:12;-0.40;99.90
23744;DHT22;12052;53.478;10.182;2023-04-03T03:55:38;-0.50;99.90
23744;DHT22;12052;53.478;10.182;2023-04-03T03:58:03;-0.50;99.90
23744;DHT22;12052;53.478;10.182;2023-04-03T04:00:29;-0.50;99.90
23744;DHT22;12052;53.478;10.182;2023-04-03T04:02:55;-0.50;99.90
23744;DHT22;12052;53.478;10.182;2023-04-03T04:05:21;-0.50;99.90
23744;DHT22;12052;53.478;10.182;2023-04-03T04:07:47;-0.60;99.90
23744;DHT22;12052;53.478;10.182;2023-04-03T04:10:12;-0.60;99.90
23744;DHT22;12052;53.478;10.182;2023-04-03T04:12:39;-0.60;99.90
23744;DHT22;12052;53.478;10.182;2023-04-03T04:15:05;-0.60;99.90
23744;DHT22;12052;53.478;10.182;2023-04-03T04:17:31;-0.60;99.90
23744;DHT22;12052;53.478;10.182;2023-04-03T04:19:56;-0.60;99.90
23744;DHT22;12052;53.478;10.182;2023-04-03T04:22:22;-0.70;99.90
23744;DHT22;12052;53.478;10.182;2023-04-03T04:24:47;-0.60;99.90
23744;DHT22;12052;53.478;10.182;2023-04-03T04:27:13;-0.70;99.90
23744;DHT22;12052;53.478;10.182;2023-04-03T04:29:38;-0.70;99.90
23744;DHT22;12052;53.478;10.182;2023-04-03T04:32:04;-0.70;99.90
23744;DHT22;12052;53.478;10.182;2023-04-03T04:34:30;-0.70;99.90
23744;DHT22;12052;53.478;10.182;2023-04-03T04:36:55;-0.70;99.90
23744;DHT22;12052;53.478;10.182;2023-04-03T04:39:21;-0.70;99.90
23744;DHT22;12052;53.478;10.182;2023-04-03T04:41:46;-0.80;99.90
23744;DHT22;12052;53.478;10.182;2023-04-03T04:44:12;-0.80;99.90
23744;DHT22;12052;53.478;10.182;2023-04-03T04:46:37;-0.80;99.90
23744;DHT22;12052;53.478;10.182;2023-04-03T04:49:03;-0.80;99.90
23744;DHT22;12052;53.478;10.182;2023-04-03T04:51:29;-0.90;99.90
23744;DHT22;12052;53.478;10.182;2023-04-03T04:53:54;-0.90;99.90
23744;DHT22;12052;53.478;10.182;2023-04-03T04:56:20;-0.90;99.90
23744;DHT22;12052;53.478;10.182;2023-04-03T04:58:46;-0.90;99.90
23744;DHT22;12052;53.478;10.182;2023-04-03T05:01:11;-0.90;99.90
23744;DHT22;12052;53.478;10.182;2023-04-03T05:03:37;-0.90;99.90
23744;DHT22;12052;53.478;10.182;2023-04-03T05:06:03;-0.90;99.90
23744;DHT22;12052;53.478;10.182;2023-04-03T05:08:28;-0.90;99.90
23744;DHT22;12052;53.478;10.182;2023-04-03T05:10:54;-0.80;99.90
23744;DHT22;12052;53.478;10.182;2023-04-03T05:13:20;-0.90;99.90
23744;DHT22;12052;53.478;10.182;2023-04-03T05:15:46;-0.80;99.90
23744;DHT22;12052;53.478;10.182;2023-04-03T05:18:12;-0.80;99.90
23744;DHT22;12052;53.478;10.182;2023-04-03T05:20:38;-0.80;99.90
23744;DHT22;12052;53.478;10.182;2023-04-03T05:23:04;-0.80;99.90
23744;DHT22;12052;53.478;10.182;2023-04-03T05:25:30;-0.80;99.90
23744;DHT22;12052;53.478;10.182;2023-04-03T05:27:55;-0.70;99.90
23744;DHT22;12052;53.478;10.182;2023-04-03T05:30:21;-0.70;99.90
23744;DHT22;12052;53.478;10.182;2023-04-03T05:32:47;-0.70;99.90
23744;DHT22;12052;53.478;10.182;2023-04-03T05:35:13;-0.70;99.90
23744;DHT22;12052;53.478;10.182;2023-04-03T05:37:39;-0.60;99.90
23744;DHT22;12052;53.478;10.182;2023-04-03T05:40:05;-0.40;99.90
23744;DHT22;12052;53.478;10.182;2023-04-03T05:42:31;-0.30;99.90
23744;DHT22;12052;53.478;10.182;2023-04-03T05:44:57;-0.10;99.90
23744;DHT22;12052;53.478;10.182;2023-04-03T05:47:23;0.10;99.90
23744;DHT22;12052;53.478;10.182;2023-04-03T05:49:48;0.50;99.90
23744;DHT22;12052;53.478;10.182;2023-04-03T05:54:45;1.10;99.90
23744;DHT22;12052;53.478;10.182;2023-04-03T05:57:14;1.30;99.90
23744;DHT22;12052;53.478;10.182;2023-04-03T05:59:39;1.70;99.90
23744;DHT22;12052;53.478;10.182;2023-04-03T06:02:05;1.90;99.90
23744;DHT22;12052;53.478;10.182;2023-04-03T06:04:31;2.20;99.90
23744;DHT22;12052;53.478;10.182;2023-04-03T06:06:57;2.30;99.90
23744;DHT22;12052;53.478;10.182;2023-04-03T06:09:26;2.50;99.90
23744;DHT22;12052;53.478;10.182;2023-04-03T06:11:52;2.70;99.90
23744;DHT22;12052;53.478;10.182;2023-04-03T06:14:18;2.90;99.90
23744;DHT22;12052;53.478;10.182;2023-04-03T06:16:44;3.10;99.90
23744;DHT22;12052;53.478;10.182;2023-04-03T06:19:11;3.40;99.90
23744;DHT22;12052;53.478;10.182;2023-04-03T06:21:37;3.60;99.90
23744;DHT22;12052;53.478;10.182;2023-04-03T06:24:04;3.80;99.90
23744;DHT22;12052;53.478;10.182;2023-04-03T06:26:29;3.90;99.90
23744;DHT22;12052;53.478;10.182;2023-04-03T06:28:55;4.00;99.90
23744;DHT22;12052;53.478;10.182;2023-04-03T06:31:21;4.20;99.90
23744;DHT22;12052;53.478;10.182;2023-04-03T06:33:47;4.10;99.90
23744;DHT22;12052;53.478;10.182;2023-04-03T06:36:13;4.10;99.90
23744;DHT22;12052;53.478;10.182;2023-04-03T06:38:38;4.20;99.90
23744;DHT22;12052;53.478;10.182;2023-04-03T06:41:04;4.20;99.90
23744;DHT22;12052;53.478;10.182;2023-04-03T06:43:30;4.30;99.90
23744;DHT22;12052;53.478;10.182;2023-04-03T06:45:58;4.50;99.90
23744;DHT22;12052;53.478;10.182;2023-04-03T06:48:24;4.60;99.90
23744;DHT22;12052;53.478;10.182;2023-04-03T06:50:49;4.70;99.90
23744;DHT22;12052;53.478;10.182;2023-04-03T06:53:15;4.90;99.90
23744;DHT22;12052;53.478;10.182;2023-04-03T06:55:41;4.90;99.90
23744;DHT22;12052;53.478;10.182;2023-04-03T06:58:07;5.00;99.90
23744;DHT22;12052;53.478;10.182;2023-04-03T07:00:33;5.00;99.90
23744;DHT22;12052;53.478;10.182;2023-04-03T07:02:59;5.10;99.90
23744;DHT22;12052;53.478;10.182;2023-04-03T07:05:25;5.20;99.90
23744;DHT22;12052;53.478;10.182;2023-04-03T07:07:52;5.30;99.90
23744;DHT22;12052;53.478;10.182;2023-04-03T07:10:18;5.40;99.90
23744;DHT22;12052;53.478;10.182;2023-04-03T07:12:43;5.60;99.90
23744;DHT22;12052;53.478;10.182;2023-04-03T07:15:10;5.70;99.90
23744;DHT22;12052;53.478;10.182;2023-04-03T07:17:35;5.70;99.90
23744;DHT22;12052;53.478;10.182;2023-04-03T07:20:03;5.70;99.90
23744;DHT22;12052;53.478;10.182;2023-04-03T07:22:29;5.70;99.90
23744;DHT22;12052;53.478;10.182;2023-04-03T07:24:55;5.70;99.90
23744;DHT22;12052;53.478;10.182;2023-04-03T07:27:20;5.80;99.90
23744;DHT22;12052;53.478;10.182;2023-04-03T07:29:46;6.10;99.90
23744;DHT22;12052;53.478;10.182;2023-04-03T07:32:14;6.20;99.90
23744;DHT22;12052;53.478;10.182;2023-04-03T07:34:40;6.40;99.90
23744;DHT22;12052;53.478;10.182;2023-04-03T07:37:07;6.30;99.90
23744;DHT22;12052;53.478;10.182;2023-04-03T07:39:34;6.60;99.90
23744;DHT22;12052;53.478;10.182;2023-04-03T07:42:00;6.40;99.90
23744;DHT22;12052;53.478;10.182;2023-04-03T07:44:25;6.60;99.90
23744;DHT22;12052;53.478;10.182;2023-04-03T07:46:51;6.80;99.90
23744;DHT22;12052;53.478;10.182;2023-04-03T07:49:17;6.90;99.90
23744;DHT22;12052;53.478;10.182;2023-04-03T07:51:48;7.20;99.90
23744;DHT22;12052;53.478;10.182;2023-04-03T07:54:14;7.20;99.90
23744;DHT22;12052;53.478;10.182;2023-04-03T07:56:40;7.30;99.90
23744;DHT22;12052;53.478;10.182;2023-04-03T07:59:08;7.50;99.90
23744;DHT22;12052;53.478;10.182;2023-04-03T08:01:34;7.60;99.90
23744;DHT22;12052;53.478;10.182;2023-04-03T08:03:59;7.80;99.90
23744;DHT22;12052;53.478;10.182;2023-04-03T08:06:25;8.10;99.90
23744;DHT22;12052;53.478;10.182;2023-04-03T08:08:51;7.90;99.90
23744;DHT22;12052;53.478;10.182;2023-04-03T08:11:17;8.00;99.90
23744;DHT22;12052;53.478;10.182;2023-04-03T08:13:44;8.20;99.90
23744;DHT22;12052;53.478;10.182;2023-04-03T08:16:16;8.40;99.90
23744;DHT22;12052;53.478;10.182;2023-04-03T08:18:42;8.40;99.90
23744;DHT22;12052;53.478;10.182;2023-04-03T08:21:10;8.60;99.90
23744;DHT22;12052;53.478;10.182;2023-04-03T08:23:36;8.50;99.90
23744;DHT22;12052;53.478;10.182;2023-04-03T08:26:13;8.40;99.90
23744;DHT22;12052;53.478;10.182;2023-04-03T08:28:39;8.80;99.90
23744;DHT22;12052;53.478;10.182;2023-04-03T08:31:06;8.70;99.90
23744;DHT22;12052;53.478;10.182;2023-04-03T08:33:33;8.70;99.90
23744;DHT22;12052;53.478;10.182;2023-04-03T08:36:01;8.90;99.90
23744;DHT22;12052;53.478;10.182;2023-04-03T08:38:26;9.00;99.90
23744;DHT22;12052;53.478;10.182;2023-04-03T08:41:06;8.80;99.90
23744;DHT22;12052;53.478;10.182;2023-04-03T08:43:55;8.90;99.90
23744;DHT22;12052;53.478;10.182;2023-04-03T08:46:26;9.30;99.90
23744;DHT22;12052;53.478;10.182;2023-04-03T08:48:57;9.40;99.90
23744;DHT22;12052;53.478;10.182;2023-04-03T08:51:24;9.20;99.90
23744;DHT22;12052;53.478;10.182;2023-04-03T08:54:03;9.60;99.90
23744;DHT22;12052;53.478;10.182;2023-04-03T08:56:31;9.80;99.90
23744;DHT22;12052;53.478;10.182;2023-04-03T08:59:05;9.60;99.90
23744;DHT22;12052;53.478;10.182;2023-04-03T09:01:37;9.80;99.90
23744;DHT22;12052;53.478;10.182;2023-04-03T09:04:10;10.00;99.90
23744;DHT22;12052;53.478;10.182;2023-04-03T09:06:36;9.70;99.90
23744;DHT22;12052;53.478;10.182;2023-04-03T09:09:12;9.80;99.90
23744;DHT22;12052;53.478;10.182;2023-04-03T09:11:44;10.10;99.90
23744;DHT22;12052;53.478;10.182;2023-04-03T09:14:25;10.20;99.90
23744;DHT22;12052;53.478;10.182;2023-04-03T09:16:57;10.10;99.90
23744;DHT22;12052;53.478;10.182;2023-04-03T09:21:50;9.60;99.90
23744;DHT22;12052;53.478;10.182;2023-04-03T09:24:16;9.90;99.90
23744;DHT22;12052;53.478;10.182;2023-04-03T09:26:53;10.10;99.90
23744;DHT22;12052;53.478;10.182;2023-04-03T09:29:23;9.80;99.90
23744;DHT22;12052;53.478;10.182;2023-04-03T09:31:55;9.40;99.90
23744;DHT22;12052;53.478;10.182;2023-04-03T09:34:27;9.50;99.90
23744;DHT22;12052;53.478;10.182;2023-04-03T09:36:55;9.80;99.90
23744;DHT22;12052;53.478;10.182;2023-04-03T09:39:23;10.20;99.90
23744;DHT22;12052;53.478;10.182;2023-04-03T09:42:20;10.00;99.90
23744;DHT22;12052;53.478;10.182;2023-04-03T09:47:34;9.90;99.90
23744;DHT22;12052;53.478;10.182;2023-04-03T09:50:20;10.00;99.90
23744;DHT22;12052;53.478;10.182;2023-04-03T09:52:48;10.40;99.90
23744;DHT22;12052;53.478;10.182;2023-04-03T09:55:22;10.40;99.90
23744;DHT22;12052;53.478;10.182;2023-04-03T09:57:53;10.30;99.90
23744;DHT22;12052;53.478;10.182;2023-04-03T10:00:30;10.30;99.90
23744;DHT22;12052;53.478;10.182;2023-04-03T10:02:58;10.30;99.90
23744;DHT22;12052;53.478;10.182;2023-04-03T10:05:34;10.50;99.90
23744;DHT22;12052;53.478;10.182;2023-04-03T10:08:33;10.90;99.90
23744;DHT22;12052;53.478;10.182;2023-04-03T10:11:17;10.70;99.90
23744;DHT22;12052;53.478;10.182;2023-04-03T10:13:57;10.80;99.90
23744;DHT22;12052;53.478;10.182;2023-04-03T10:16:35;10.40;99.90
23744;DHT22;12052;53.478;10.182;2023-04-03T10:21:59;9.90;99.90
23744;DHT22;12052;53.478;10.182;2023-04-03T10:30:48;9.20;99.90
23744;DHT22;12052;53.478;10.182;2023-04-03T10:33:45;9.00;99.90
23744;DHT22;12052;53.478;10.182;2023-04-03T10:36:37;8.90;99.90
23744;DHT22;12052;53.478;10.182;2023-04-03T10:41:53;8.60;99.90
23744;DHT22;12052;53.478;10.182;2023-04-03T10:47:34;9.10;99.90
23744;DHT22;12052;53.478;10.182;2023-04-03T10:58:43;8.10;99.90
23744;DHT22;12052;53.478;10.182;2023-04-03T11:01:16;8.00;99.90
23744;DHT22;12052;53.478;10.182;2023-04-03T11:03:48;7.70;99.90
23744;DHT22;12052;53.478;10.182;2023-04-03T11:06:16;7.60;99.90
23744;DHT22;12052;53.478;10.182;2023-04-03T11:09:02;7.50;99.90
23744;DHT22;12052;53.478;10.182;2023-04-03T11:11:35;7.40;99.90
23744;DHT22;12052;53.478;10.182;2023-04-03T11:14:32;7.20;99.90
23744;DHT22;12052;53.478;10.182;2023-04-03T11:17:15;7.40;99.90
23744;DHT22;12052;53.478;10.182;2023-04-03T11:19:49;7.80;99.90
23744;DHT22;12052;53.478;10.182;2023-04-03T11:22:29;8.40;99.90
23744;DHT22;12052;53.478;10.182;2023-04-03T11:25:20;8.80;99.90
23744;DHT22;12052;53.478;10.182;2023-04-03T11:30:20;8.90;99.90
23744;DHT22;12052;53.478;10.182;2023-04-03T11:33:18;8.70;99.90
23744;DHT22;12052;53.478;10.182;2023-04-03T11:35:57;8.40;99.90
23744;DHT22;12052;53.478;10.182;2023-04-03T11:38:28;8.20;99.90
23744;DHT22;12052;53.478;10.182;2023-04-03T11:40:57;8.10;99.90
23744;DHT22;12052;53.478;10.182;2023-04-03T11:43:28;8.00;99.90
23744;DHT22;12052;53.478;10.182;2023-04-03T11:46:03;7.90;99.90
23744;DHT22;12052;53.478;10.182;2023-04-03T11:53:53;8.70;99.90
23744;DHT22;12052;53.478;10.182;2023-04-03T12:01:48;9.40;99.90
23744;DHT22;12052;53.478;10.182;2023-04-03T12:04:16;9.30;99.90
23744;DHT22;12052;53.478;10.182;2023-04-03T12:06:49;9.00;99.90
23744;DHT22;12052;53.478;10.182;2023-04-03T12:12:28;8.80;99.90
23744;DHT22;12052;53.478;10.182;2023-04-03T12:14:54;9.20;99.90
23744;DHT22;12052;53.478;10.182;2023-04-03T12:17:25;9.40;99.90
23744;DHT22;12052;53.478;10.182;2023-04-03T12:19:52;9.90;99.90
23744;DHT22;12052;53.478;10.182;2023-04-03T12:22:20;10.10;99.90
23744;DHT22;12052;53.478;10.182;2023-04-03T12:24:51;9.90;99.90
23744;DHT22;12052;53.478;10.182;2023-04-03T12:27:46;9.30;99.90
23744;DHT22;12052;53.478;10.182;2023-04-03T12:30:21;8.70;99.90
23744;DHT22;12052;53.478;10.182;2023-04-03T12:35:55;8.40;99.90
23744;DHT22;12052;53.478;10.182;2023-04-03T12:41:23;8.40;99.90
23744;DHT22;12052;53.478;10.182;2023-04-03T12:44:41;8.80;99.90
23744;DHT22;12052;53.478;10.182;2023-04-03T12:47:23;8.80;99.90
23744;DHT22;12052;53.478;10.182;2023-04-03T12:49:50;8.70;99.90
23744;DHT22;12052;53.478;10.182;2023-04-03T12:52:39;8.60;99.90
23744;DHT22;12052;53.478;10.182;2023-04-03T12:55:18;8.70;99.90
23744;DHT22;12052;53.478;10.182;2023-04-03T12:57:44;8.90;99.90
23744;DHT22;12052;53.478;10.182;2023-04-03T13:00:32;9.00;99.90
23744;DHT22;12052;53.478;10.182;2023-04-03T13:02:59;9.20;99.90
23744;DHT22;12052;53.478;10.182;2023-04-03T13:05:25;9.50;99.90
23744;DHT22;12052;53.478;10.182;2023-04-03T13:07:58;9.60;99.90
23744;DHT22;12052;53.478;10.182;2023-04-03T13:10:23;9.30;99.90
23744;DHT22;12052;53.478;10.182;2023-04-03T13:12:58;9.10;99.90
23744;DHT22;12052;53.478;10.182;2023-04-03T13:15:42;8.70;99.90
23744;DHT22;12052;53.478;10.182;2023-04-03T13:18:30;8.40;99.90
23744;DHT22;12052;53.478;10.182;2023-04-03T13:21:01;8.10;99.90
23744;DHT22;12052;53.478;10.182;2023-04-03T13:23:29;8.10;99.90
23744;DHT22;12052;53.478;10.182;2023-04-03T13:25:55;8.10;99.90
23744;DHT22;12052;53.478;10.182;2023-04-03T13:28:26;8.30;99.90
23744;DHT22;12052;53.478;10.182;2023-04-03T13:33:57;8.70;99.90
23744;DHT22;12052;53.478;10.182;2023-04-03T13:36:45;8.90;99.90
23744;DHT22;12052;53.478;10.182;2023-04-03T13:39:27;9.10;99.90
23744;DHT22;12052;53.478;10.182;2023-04-03T13:41:56;9.10;99.90
23744;DHT22;12052;53.478;10.182;2023-04-03T13:46:56;8.40;99.90
23744;DHT22;12052;53.478;10.182;2023-04-03T13:49:34;8.20;99.90
23744;DHT22;12052;53.478;10.182;2023-04-03T13:52:17;8.20;99.90
23744;DHT22;12052;53.478;10.182;2023-04-03T13:54:47;8.20;99.90
23744;DHT22;12052;53.478;10.182;2023-04-03T13:57:16;8.20;99.90
23744;DHT22;12052;53.478;10.182;2023-04-03T13:59:42;8.40;99.90
23744;DHT22;12052;53.478;10.182;2023-04-03T14:04:55;8.50;99.90
23744;DHT22;12052;53.478;10.182;2023-04-03T14:07:25;8.60;99.90
23744;DHT22;12052;53.478;10.182;2023-04-03T14:09:51;8.60;99.90
23744;DHT22;12052;53.478;10.182;2023-04-03T14:14:51;8.50;99.90
23744;DHT22;12052;53.478;10.182;2023-04-03T14:17:20;8.50;99.90
23744;DHT22;12052;53.478;10.182;2023-04-03T14:19:47;8.50;99.90
23744;DHT22;12052;53.478;10.182;2023-04-03T14:22:19;8.30;99.90
23744;DHT22;12052;53.478;10.182;2023-04-03T14:24:47;8.30;99.90
23744;DHT22;12052;53.478;10.182;2023-04-03T14:27:33;8.40;99.90
23744;DHT22;12052;53.478;10.182;2023-04-03T14:29:59;8.30;99.90
23744;DHT22;12052;53.478;10.182;2023-04-03T14:32:25;8.30;99.90
23744;DHT22;12052;53.478;10.182;2023-04-03T14:34:51;8.30;99.90
23744;DHT22;12052;53.478;10.182;2023-04-03T14:37:24;8.30;99.90
23744;DHT22;12052;53.478;10.182;2023-04-03T14:39:51;8.20;99.90
23744;DHT22;12052;53.478;10.182;2023-04-03T14:42:25;8.20;99.90
23744;DHT22;12052;53.478;10.182;2023-04-03T14:44:52;8.20;99.90
23744;DHT22;12052;53.478;10.182;2023-04-03T14:47:24;8.20;99.90
23744;DHT22;12052;53.478;10.182;2023-04-03T14:49:50;8.20;99.90
23744;DHT22;12052;53.478;10.182;2023-04-03T14:52:20;8.10;99.90
23744;DHT22;12052;53.478;10.182;2023-04-03T14:54:48;8.00;99.90
23744;DHT22;12052;53.478;10.182;2023-04-03T14:57:15;7.70;99.90
23744;DHT22;12052;53.478;10.182;2023-04-03T14:59:42;7.70;99.90
23744;DHT22;12052;53.478;10.182;2023-04-03T15:02:29;7.70;99.90
23744;DHT22;12052;53.478;10.182;2023-04-03T15:04:57;7.80;99.90
23744;DHT22;12052;53.478;10.182;2023-04-03T15:07:24;7.80;99.90
23744;DHT22;12052;53.478;10.182;2023-04-03T15:09:50;7.90;99.90
23744;DHT22;12052;53.478;10.182;2023-04-03T15:12:16;7.90;99.90
23744;DHT22;12052;53.478;10.182;2023-04-03T15:14:42;7.90;99.90
23744;DHT22;12052;53.478;10.182;2023-04-03T15:17:16;7.70;99.90
23744;DHT22;12052;53.478;10.182;2023-04-03T15:19:42;7.70;99.90
23744;DHT22;12052;53.478;10.182;2023-04-03T15:22:14;7.70;99.90
23744;DHT22;12052;53.478;10.182;2023-04-03T15:24:40;7.50;99.90
23744;DHT22;12052;53.478;10.182;2023-04-03T15:27:05;7.40;99.90
23744;DHT22;12052;53.478;10.182;2023-04-03T15:29:31;7.50;99.90
23744;DHT22;12052;53.478;10.182;2023-04-03T15:31:56;7.50;99.90
23744;DHT22;12052;53.478;10.182;2023-04-03T15:34:22;7.40;99.90
23744;DHT22;12052;53.478;10.182;2023-04-03T15:36:47;7.40;99.90
23744;DHT22;12052;53.478;10.182;2023-04-03T15:39:13;7.40;99.90
23744;DHT22;12052;53.478;10.182;2023-04-03T15:41:39;7.40;99.90
23744;DHT22;12052;53.478;10.182;2023-04-03T15:44:05;7.40;99.90
23744;DHT22;12052;53.478;10.182;2023-04-03T15:46:31;7.40;99.90
23744;DHT22;12052;53.478;10.182;2023-04-03T15:48:57;7.40;99.90
23744;DHT22;12052;53.478;10.182;2023-04-03T15:51:23;7.30;99.90
23744;DHT22;12052;53.478;10.182;2023-04-03T15:53:48;7.30;99.90
23744;DHT22;12052;53.478;10.182;2023-04-03T15:56:14;7.20;99.90
23744;DHT22;12052;53.478;10.182;2023-04-03T15:58:40;7.20;99.90
23744;DHT22;12052;53.478;10.182;2023-04-03T16:01:06;7.20;99.90
23744;DHT22;12052;53.478;10.182;2023-04-03T16:03:31;7.10;99.90
23744;DHT22;12052;53.478;10.182;2023-04-03T16:05:57;7.10;99.90
23744;DHT22;12052;53.478;10.182;2023-04-03T16:08:23;7.10;99.90
23744;DHT22;12052;53.478;10.182;2023-04-03T16:10:48;7.00;99.90
23744;DHT22;12052;53.478;10.182;2023-04-03T16:13:14;7.00;99.90
23744;DHT22;12052;53.478;10.182;2023-04-03T16:15:40;7.00;99.90
23744;DHT22;12052;53.478;10.182;2023-04-03T16:18:07;6.80;99.90
23744;DHT22;12052;53.478;10.182;2023-04-03T16:20:34;6.80;99.90
23744;DHT22;12052;53.478;10.182;2023-04-03T16:23:01;6.80;99.90
23744;DHT22;12052;53.478;10.182;2023-04-03T16:25:26;6.80;99.90
23744;DHT22;12052;53.478;10.182;2023-04-03T16:27:52;6.70;99.90
23744;DHT22;12052;53.478;10.182;2023-04-03T16:30:19;6.70;99.90
23744;DHT22;12052;53.478;10.182;2023-04-03T16:32:45;6.60;99.90
23744;DHT22;12052;53.478;10.182;2023-04-03T16:35:11;6.60;99.90
23744;DHT22;12052;53.478;10.182;2023-04-03T16:37:37;6.50;99.90
23744;DHT22;12052;53.478;10.182;2023-04-03T16:40:05;6.50;99.90
23744;DHT22;12052;53.478;10.182;2023-04-03T16:42:31;6.50;99.90